Time;durP1;ratioP1;P1;durP2;ratioP2;P2;SDS_P1;SDS_P2;PMS_P1;PMS_P2;Temp;Humidity;BMP_temperature;BMP_pressure;BME280_temperature;BME280_humidity;BME280_pressure;Samples;Min_cycle;Max_cycle;Signal;HPM_P1;HPM_P2
2021/10/25 00:01:28;;;;;;;7.45;4.25;;;1.90;92.90;;;;;;4908005;29;20036;-68
2021/10/25 00:03:54;;;;;;;6.97;4.18;;;1.90;92.80;;;;;;4910346;29;20072;-68
2021/10/25 00:06:20;;;;;;;4.22;3.83;;;1.80;92.60;;;;;;4900641;29;22164;-68
2021/10/25 00:08:46;;;;;;;6.70;4.50;;;1.70;92.20;;;;;;4903508;29;20393;-68
2021/10/25 00:11:13;;;;;;;6.28;3.80;;;1.70;91.80;;;;;;4902315;29;20040;-68
2021/10/25 00:13:40;;;;;;;4.65;4.22;;;1.60;92.00;;;;;;4902501;29;20127;-68
2021/10/25 00:16:06;;;;;;;5.28;4.35;;;1.50;91.90;;;;;;4907968;29;20036;-69
2021/10/25 00:18:33;;;;;;;6.15;4.13;;;1.50;92.30;;;;;;4906300;29;20122;-68
2021/10/25 00:20:59;;;;;;;5.05;4.10;;;1.50;92.70;;;;;;4906572;29;20031;-68
2021/10/25 00:23:25;;;;;;;4.70;3.75;;;1.50;92.70;;;;;;4903729;29;20032;-69
2021/10/25 00:25:51;;;;;;;6.43;4.00;;;1.50;93.40;;;;;;4909012;29;20095;-68
2021/10/25 00:28:16;;;;;;;6.80;4.35;;;1.40;93.40;;;;;;4912507;29;20070;-68
2021/10/25 00:30:42;;;;;;;6.20;4.25;;;1.40;93.50;;;;;;4904223;29;20517;-68
2021/10/25 00:33:08;;;;;;;6.13;4.57;;;1.50;94.20;;;;;;4901263;29;20662;-68
2021/10/25 00:35:34;;;;;;;5.60;4.15;;;1.50;94.30;;;;;;4918704;29;20036;-68
2021/10/25 00:38:00;;;;;;;4.10;3.65;;;1.50;94.10;;;;;;4905592;29;20040;-68
2021/10/25 00:40:26;;;;;;;6.20;4.30;;;1.50;94.40;;;;;;4903033;29;20083;-68
2021/10/25 00:42:51;;;;;;;5.15;4.18;;;1.50;94.40;;;;;;4898660;29;20083;-68
2021/10/25 00:45:17;;;;;;;6.68;4.03;;;1.40;94.80;;;;;;4902368;29;20028;-68
2021/10/25 00:47:43;;;;;;;5.32;3.80;;;1.40;94.90;;;;;;4907861;29;20091;-68
2021/10/25 00:50:09;;;;;;;5.78;4.28;;;1.30;95.90;;;;;;4902645;29;20758;-68
2021/10/25 00:52:36;;;;;;;6.00;4.55;;;1.30;96.30;;;;;;4903398;29;20504;-68
2021/10/25 00:55:04;;;;;;;5.10;3.47;;;1.30;96.40;;;;;;4902999;29;20040;-68
2021/10/25 00:57:29;;;;;;;4.63;3.97;;;1.30;96.10;;;;;;4903096;29;20082;-68
2021/10/25 00:59:55;;;;;;;8.23;3.78;;;1.30;96.70;;;;;;4904572;29;20056;-68
2021/10/25 01:02:21;;;;;;;4.28;3.88;;;1.40;96.30;;;;;;4905582;29;20040;-69
2021/10/25 01:04:46;;;;;;;5.65;4.05;;;1.40;96.00;;;;;;4900079;29;20043;-69
2021/10/25 01:07:12;;;;;;;6.18;3.85;;;1.50;95.60;;;;;;4901183;29;20031;-68
2021/10/25 01:09:39;;;;;;;4.50;3.92;;;1.50;95.30;;;;;;4905089;29;20448;-69
2021/10/25 01:12:05;;;;;;;4.97;4.03;;;1.50;94.70;;;;;;4908695;29;20111;-68
2021/10/25 01:14:31;;;;;;;4.65;3.20;;;1.50;94.30;;;;;;4899834;29;20043;-68
2021/10/25 01:16:57;;;;;;;4.72;3.83;;;1.40;94.20;;;;;;4905254;29;20036;-68
2021/10/25 01:19:22;;;;;;;7.95;4.75;;;1.40;94.00;;;;;;4903549;29;20031;-68
2021/10/25 01:21:48;;;;;;;4.30;3.85;;;1.40;94.20;;;;;;4907754;29;20119;-68
2021/10/25 01:24:14;;;;;;;5.50;4.07;;;1.40;94.00;;;;;;4907220;29;20474;-68
2021/10/25 01:26:39;;;;;;;5.47;3.40;;;1.50;93.70;;;;;;4905900;29;20479;-68
2021/10/25 01:29:06;;;;;;;4.35;3.90;;;1.40;93.00;;;;;;4903972;29;20083;-68
2021/10/25 01:31:32;;;;;;;4.57;3.97;;;1.50;93.00;;;;;;4903598;29;20068;-68
2021/10/25 01:33:58;;;;;;;5.38;3.67;;;1.40;93.20;;;;;;4900316;29;20066;-68
2021/10/25 01:36:23;;;;;;;6.22;4.28;;;1.40;93.90;;;;;;4903476;29;20088;-68
2021/10/25 01:38:50;;;;;;;6.68;4.50;;;1.40;93.90;;;;;;4905993;29;20028;-69
2021/10/25 01:41:17;;;;;;;5.32;4.07;;;1.40;94.10;;;;;;4905213;29;20056;-68
2021/10/25 01:43:42;;;;;;;5.47;3.70;;;1.40;93.50;;;;;;4904931;29;20404;-68
2021/10/25 01:46:09;;;;;;;3.80;3.40;;;1.50;93.40;;;;;;4906737;29;20031;-68
2021/10/25 01:48:35;;;;;;;6.55;3.97;;;1.50;93.10;;;;;;4901147;29;20055;-68
2021/10/25 01:51:01;;;;;;;4.65;4.20;;;1.50;93.00;;;;;;4895798;29;20532;-68
2021/10/25 01:53:28;;;;;;;5.60;4.15;;;1.50;94.00;;;;;;4905111;29;20040;-68
2021/10/25 01:56:00;;;;;;;6.05;3.88;;;1.50;93.70;;;;;;4907548;29;20060;-68
2021/10/25 01:58:26;;;;;;;5.55;3.65;;;1.50;93.40;;;;;;4899523;29;20036;-68
2021/10/25 02:00:52;;;;;;;5.28;4.38;;;1.50;93.50;;;;;;4907573;29;20039;-68
2021/10/25 02:03:18;;;;;;;4.28;3.42;;;1.50;93.50;;;;;;4904894;29;20032;-68
2021/10/25 02:05:44;;;;;;;6.40;3.95;;;1.50;93.50;;;;;;4907719;29;20504;-69
2021/10/25 02:08:10;;;;;;;6.00;4.20;;;1.50;93.60;;;;;;4906301;29;20028;-68
2021/10/25 02:10:36;;;;;;;5.75;3.90;;;1.50;93.60;;;;;;4907146;29;20061;-68
2021/10/25 02:13:02;;;;;;;4.85;4.05;;;1.50;93.70;;;;;;4910128;29;20499;-68
2021/10/25 02:15:28;;;;;;;4.43;3.78;;;1.50;93.90;;;;;;4905972;29;20036;-68
2021/10/25 02:17:53;;;;;;;3.38;3.08;;;1.50;94.20;;;;;;4908087;29;20072;-68
2021/10/25 02:20:19;;;;;;;3.53;3.22;;;1.50;94.20;;;;;;4907452;29;20102;-68
2021/10/25 02:22:45;;;;;;;5.38;4.50;;;1.40;93.80;;;;;;4910451;29;20363;-68
2021/10/25 02:25:11;;;;;;;5.32;4.05;;;1.50;94.20;;;;;;4904561;29;20637;-68
2021/10/25 02:27:36;;;;;;;3.63;3.22;;;1.50;94.60;;;;;;4908015;29;20073;-68
2021/10/25 02:30:04;;;;;;;4.57;3.72;;;1.40;94.80;;;;;;4909042;29;20032;-68
2021/10/25 02:32:30;;;;;;;4.05;3.25;;;1.40;94.90;;;;;;4909827;29;20040;-68
2021/10/25 02:34:56;;;;;;;5.05;4.00;;;1.40;94.90;;;;;;4908467;29;20020;-68
2021/10/25 02:37:22;;;;;;;4.50;3.53;;;1.40;94.60;;;;;;4907600;29;20477;-69
2021/10/25 02:39:48;;;;;;;5.82;4.28;;;1.40;93.70;;;;;;4903714;29;20051;-68
2021/10/25 02:42:14;;;;;;;5.78;4.00;;;1.30;93.10;;;;;;4907382;29;20060;-68
2021/10/25 02:44:40;;;;;;;4.75;4.20;;;1.20;93.30;;;;;;4901446;29;20020;-68
2021/10/25 02:47:06;;;;;;;5.53;4.65;;;1.20;93.40;;;;;;4920574;29;20035;-68
2021/10/25 02:49:31;;;;;;;4.90;4.40;;;1.20;93.60;;;;;;4898266;29;20054;-68
2021/10/25 02:51:57;;;;;;;4.93;4.35;;;1.20;93.30;;;;;;4897970;29;20048;-68
2021/10/25 02:54:25;;;;;;;6.82;3.83;;;1.30;93.00;;;;;;4908758;29;20039;-68
2021/10/25 02:56:53;;;;;;;4.03;3.65;;;1.20;92.10;;;;;;4905709;29;20028;-68
2021/10/25 02:59:19;;;;;;;;;;;1.20;92.00;;;;;;4899625;29;20075;-68
2021/10/25 03:01:46;;;;;;;3.40;2.58;;;1.10;91.80;;;;;;4905310;29;20350;-68
2021/10/25 03:04:12;;;;;;;4.15;3.30;;;1.00;92.40;;;;;;4902388;29;20024;-68
2021/10/25 03:06:38;;;;;;;4.07;3.67;;;1.10;92.80;;;;;;4896595;29;20063;-69
2021/10/25 03:09:06;;;;;;;6.78;3.78;;;1.10;92.70;;;;;;4899606;29;20036;-69
2021/10/25 03:11:32;;;;;;;5.28;3.95;;;1.10;93.30;;;;;;4908070;29;20031;-68
2021/10/25 03:13:58;;;;;;;4.53;3.58;;;1.10;93.00;;;;;;4900191;29;20756;-68
2021/10/25 03:16:24;;;;;;;3.78;3.47;;;1.10;92.20;;;;;;4908484;29;20032;-68
2021/10/25 03:18:50;;;;;;;6.88;4.05;;;1.00;91.40;;;;;;4907117;29;20120;-68
2021/10/25 03:21:21;;;;;;;6.10;4.10;;;1.00;91.80;;;;;;4901640;29;20020;-69
2021/10/25 03:23:48;;;;;;;4.20;3.60;;;0.90;92.20;;;;;;4903620;29;20028;-68
2021/10/25 03:26:14;;;;;;;4.43;3.60;;;0.80;92.80;;;;;;4898622;29;20028;-68
2021/10/25 03:28:40;;;;;;;8.50;3.78;;;0.80;93.40;;;;;;4902775;29;20529;-68
2021/10/25 03:31:07;;;;;;;5.93;3.92;;;0.80;93.60;;;;;;4903060;28;20034;-68
2021/10/25 03:33:34;;;;;;;3.50;3.10;;;0.80;93.90;;;;;;4904687;29;20541;-69
2021/10/25 03:36:02;;;;;;;6.15;3.90;;;0.80;93.70;;;;;;4902254;29;20055;-68
2021/10/25 03:38:32;;;;;;;;;;;0.90;93.80;;;;;;4905166;29;20809;-68
2021/10/25 03:40:58;;;;;;;4.72;3.75;;;0.90;93.70;;;;;;4908894;29;20655;-68
2021/10/25 03:43:28;;;;;;;5.25;3.75;;;0.80;94.00;;;;;;4901357;29;20036;-68
2021/10/25 03:49:01;;;;;;;6.25;4.53;;;1.00;93.70;;;;;;4901544;29;20028;-68
2021/10/25 03:51:27;;;;;;;3.53;3.15;;;0.80;92.50;;;;;;4908379;29;20561;-68
2021/10/25 03:54:05;;;;;;;3.95;3.22;;;0.80;93.10;;;;;;4912254;29;20107;-68
2021/10/25 04:04:27;;;;;;;5.63;3.97;;;0.80;94.30;;;;;;4901771;29;20050;-68
2021/10/25 04:28:53;;;;;;;5.15;3.88;;;0.80;93.70;;;;;;4904598;29;20404;-68
2021/10/25 04:31:18;;;;;;;4.25;3.85;;;0.80;93.60;;;;;;4906729;29;20036;-68
2021/10/25 04:33:44;;;;;;;5.95;3.50;;;0.90;93.70;;;;;;4901523;29;20020;-68
2021/10/25 04:36:10;;;;;;;9.02;4.28;;;0.80;93.90;;;;;;4902730;29;20051;-68
2021/10/25 04:38:36;;;;;;;5.18;3.95;;;0.80;94.40;;;;;;4909376;29;20039;-69
2021/10/25 04:41:02;;;;;;;4.70;4.03;;;0.90;94.70;;;;;;4904251;29;20028;-68
2021/10/25 04:43:28;;;;;;;4.72;3.75;;;0.80;94.40;;;;;;4909301;29;20032;-69
2021/10/25 04:45:53;;;;;;;4.95;3.47;;;0.90;94.20;;;;;;4902077;29;20036;-68
2021/10/25 04:48:19;;;;;;;5.80;4.75;;;0.90;93.70;;;;;;4903216;29;20036;-68
2021/10/25 04:50:45;;;;;;;4.30;3.25;;;0.80;92.80;;;;;;4906419;29;20039;-68
2021/10/25 04:53:10;;;;;;;7.28;4.05;;;0.80;93.80;;;;;;4907407;29;20051;-69
2021/10/25 04:55:36;;;;;;;4.32;3.65;;;0.80;93.90;;;;;;4906644;29;20119;-68
2021/10/25 04:58:03;;;;;;;5.00;3.83;;;0.80;93.80;;;;;;4927776;29;20047;-68
2021/10/25 05:00:29;;;;;;;4.35;3.55;;;0.80;93.90;;;;;;4909567;29;20119;-68
2021/10/25 05:02:55;;;;;;;5.20;3.83;;;0.80;93.90;;;;;;4901511;29;20136;-69
2021/10/25 05:05:21;;;;;;;6.72;4.57;;;0.70;93.90;;;;;;4909263;29;20028;-68
2021/10/25 05:07:47;;;;;;;5.93;3.75;;;0.70;94.70;;;;;;4903582;29;20036;-68
2021/10/25 05:10:13;;;;;;;6.65;4.30;;;0.80;94.40;;;;;;4903471;29;20040;-68
2021/10/25 05:12:39;;;;;;;4.47;3.08;;;0.80;94.50;;;;;;4908022;29;20035;-69
2021/10/25 05:15:05;;;;;;;7.07;4.00;;;0.80;94.50;;;;;;4922801;29;20383;-68
2021/10/25 05:17:31;;;;;;;4.50;4.07;;;0.80;94.40;;;;;;4911821;29;20044;-66
2021/10/25 05:19:56;;;;;;;5.32;3.58;;;0.80;94.60;;;;;;4907234;29;20043;-66
2021/10/25 05:22:23;;;;;;;5.43;3.85;;;0.80;94.50;;;;;;4901240;29;20048;-66
2021/10/25 05:24:49;;;;;;;5.18;4.10;;;0.90;94.60;;;;;;4920954;29;20458;-68
2021/10/25 05:27:19;;;;;;;5.50;4.40;;;0.90;94.90;;;;;;4904601;29;20024;-67
2021/10/25 05:29:44;;;;;;;5.32;4.22;;;0.90;94.80;;;;;;4903444;29;20115;-67
2021/10/25 05:32:10;;;;;;;6.80;4.55;;;0.90;94.50;;;;;;4905092;28;20127;-66
2021/10/25 05:34:36;;;;;;;6.97;4.63;;;0.90;94.40;;;;;;4900818;29;20478;-66
2021/10/25 05:37:02;;;;;;;9.32;4.88;;;0.90;94.30;;;;;;4903632;29;20052;-67
2021/10/25 05:39:29;;;;;;;10.02;7.07;;;1.00;94.40;;;;;;4899780;29;20553;-67
2021/10/25 05:41:54;;;;;;;15.57;9.13;;;0.90;94.60;;;;;;4897625;29;20025;-68
2021/10/25 05:44:21;;;;;;;8.75;6.57;;;0.80;94.90;;;;;;4904320;29;20059;-68
2021/10/25 05:46:47;;;;;;;6.45;4.72;;;0.90;94.80;;;;;;4898828;29;20036;-67
2021/10/25 05:49:13;;;;;;;13.13;9.82;;;0.90;94.70;;;;;;4898753;29;20067;-68
2021/10/25 05:51:38;;;;;;;9.90;5.72;;;0.90;94.60;;;;;;4903015;29;20591;-67
2021/10/25 05:54:05;;;;;;;6.22;5.07;;;0.90;94.90;;;;;;4918478;29;20122;-67
2021/10/25 05:56:32;;;;;;;10.30;5.63;;;0.90;95.30;;;;;;4904450;29;20659;-67
2021/10/25 05:58:57;;;;;;;10.73;6.70;;;0.90;95.00;;;;;;4901853;29;20528;-67
2021/10/25 06:01:38;;;;;;;7.30;5.05;;;0.80;94.30;;;;;;4901625;28;20119;-68
2021/10/25 06:04:05;;;;;;;7.32;5.93;;;0.80;94.60;;;;;;4903814;29;20032;-68
2021/10/25 06:06:32;;;;;;;6.07;4.00;;;0.90;94.90;;;;;;4902688;29;20017;-67
2021/10/25 06:08:58;;;;;;;4.72;3.65;;;0.90;94.90;;;;;;4902023;29;20079;-68
2021/10/25 06:11:25;;;;;;;6.82;4.22;;;0.90;95.00;;;;;;4903436;29;20757;-68
2021/10/25 06:13:53;;;;;;;32.45;20.38;;;0.90;95.00;;;;;;4904421;29;20063;-68
2021/10/25 06:16:22;;;;;;;11.50;8.30;;;0.90;94.50;;;;;;4902285;29;20035;-68
2021/10/25 06:18:47;;;;;;;8.63;5.72;;;0.90;94.10;;;;;;4908151;29;20088;-68
2021/10/25 06:21:13;;;;;;;8.25;4.97;;;0.90;94.30;;;;;;4913292;29;20435;-68
2021/10/25 06:23:39;;;;;;;9.20;6.10;;;0.90;94.50;;;;;;4914194;29;20473;-68
2021/10/25 06:26:05;;;;;;;5.65;4.13;;;0.80;94.70;;;;;;4912697;29;20549;-68
2021/10/25 06:28:32;;;;;;;6.30;4.28;;;0.80;95.00;;;;;;4902262;29;20064;-68
2021/10/25 06:31:02;;;;;;;5.95;4.40;;;0.80;95.00;;;;;;4903877;29;20503;-68
2021/10/25 06:33:29;;;;;;;7.15;4.70;;;0.90;95.10;;;;;;4896917;29;20032;-68
2021/10/25 06:36:02;;;;;;;6.25;5.05;;;0.90;95.10;;;;;;4895093;29;20555;-68
2021/10/25 06:38:35;;;;;;;7.80;4.32;;;0.90;95.10;;;;;;4898173;29;20033;-68
2021/10/25 06:41:01;;;;;;;7.72;5.47;;;0.90;95.00;;;;;;4896441;29;20510;-68
2021/10/25 06:43:28;;;;;;;8.38;5.07;;;0.90;94.60;;;;;;4890477;29;20037;-68
2021/10/25 06:45:54;;;;;;;7.63;4.15;;;0.90;95.20;;;;;;4894751;29;20029;-68
2021/10/25 06:48:21;;;;;;;10.88;5.22;;;0.90;95.70;;;;;;4892233;29;20035;-68
2021/10/25 06:50:46;;;;;;;5.78;5.00;;;1.00;95.90;;;;;;4906160;29;20545;-68
2021/10/25 06:53:14;;;;;;;7.45;5.13;;;1.00;96.00;;;;;;4894081;29;20040;-68
2021/10/25 06:55:40;;;;;;;5.20;4.40;;;1.10;95.90;;;;;;4905449;29;20716;-68
2021/10/25 06:58:07;;;;;;;7.78;4.57;;;1.10;95.60;;;;;;4890696;29;20371;-68
2021/10/25 07:00:33;;;;;;;7.18;4.72;;;1.10;95.70;;;;;;4889566;29;20025;-68
2021/10/25 07:02:59;;;;;;;8.32;4.63;;;1.20;96.00;;;;;;4904682;29;20028;-68
2021/10/25 07:05:26;;;;;;;6.85;4.75;;;1.20;96.00;;;;;;4911322;29;20106;-68
2021/10/25 07:07:53;;;;;;;6.07;5.32;;;1.20;96.10;;;;;;4921021;28;20151;-68
2021/10/25 07:10:19;;;;;;;7.38;4.07;;;1.20;96.20;;;;;;4908140;29;20082;-68
2021/10/25 07:12:45;;;;;;;5.65;4.50;;;1.20;96.20;;;;;;4897323;29;20770;-68
2021/10/25 07:15:11;;;;;;;10.52;6.28;;;1.30;95.90;;;;;;4904763;29;20044;-68
2021/10/25 07:17:51;;;;;;;6.40;4.80;;;1.20;96.10;;;;;;4903586;29;20450;-68
2021/10/25 07:20:28;;;;;;;7.00;5.28;;;1.30;96.20;;;;;;4903339;29;20183;-68
2021/10/25 08:06:43;;;;;;;9.07;5.97;;;2.10;97.90;;;;;;4907476;29;20063;-68
2021/10/25 08:09:18;;;;;;;6.13;4.82;;;2.20;98.90;;;;;;4910713;29;20118;-68
2021/10/25 08:11:50;;;;;;;7.80;4.70;;;2.30;99.20;;;;;;4907721;29;20583;-68
2021/10/25 08:14:16;;;;;;;7.32;4.95;;;2.30;99.10;;;;;;4918679;29;20051;-68
2021/10/25 08:19:32;;;;;;;9.30;5.80;;;2.50;98.50;;;;;;4917818;29;20465;-68
2021/10/25 08:22:02;;;;;;;8.85;4.95;;;2.50;99.70;;;;;;4906712;29;20092;-68
2021/10/25 08:24:30;;;;;;;10.07;5.90;;;2.60;99.90;;;;;;4907123;29;20728;-68
2021/10/25 08:26:57;;;;;;;6.47;4.78;;;2.70;99.90;;;;;;4900353;29;20043;-69
2021/10/25 08:29:23;;;;;;;7.80;5.32;;;2.80;99.90;;;;;;4916813;29;20080;-68
2021/10/25 08:32:20;;;;;;;9.40;6.22;;;2.90;99.90;;;;;;4908635;29;20061;-68
2021/10/25 08:34:43;;;;;;;7.57;5.90;;;3.00;99.90;;;;;;4907107;29;20090;-68
2021/10/25 08:42:12;;;;;;;8.57;5.40;;;3.30;99.90;;;;;;4905927;29;20664;-69
2021/10/25 08:44:39;;;;;;;6.78;5.18;;;3.40;99.90;;;;;;4906416;29;20509;-68
2021/10/25 08:47:05;;;;;;;5.68;4.50;;;3.40;99.90;;;;;;4904927;29;20052;-68
2021/10/25 08:49:31;;;;;;;9.23;5.55;;;3.50;99.90;;;;;;4909150;29;20541;-68
2021/10/25 08:51:57;;;;;;;10.35;5.57;;;3.60;99.90;;;;;;4907771;29;20119;-68
2021/10/25 08:54:23;;;;;;;7.05;4.82;;;3.70;99.90;;;;;;4904336;29;20046;-68
2021/10/25 08:56:49;;;;;;;7.28;5.32;;;3.80;99.90;;;;;;4910474;29;20485;-68
2021/10/25 08:59:15;;;;;;;9.90;5.05;;;3.90;99.90;;;;;;4908264;29;20032;-68
2021/10/25 09:01:41;;;;;;;8.25;4.65;;;4.00;99.90;;;;;;4909081;29;20215;-68
2021/10/25 09:04:11;;;;;;;6.90;4.50;;;4.10;99.90;;;;;;4906359;29;20442;-68
2021/10/25 09:06:51;;;;;;;10.55;4.43;;;4.10;99.90;;;;;;4901026;29;20087;-68
2021/10/25 09:09:17;;;;;;;6.90;4.82;;;4.20;99.90;;;;;;4905657;29;20119;-68
2021/10/25 09:12:08;;;;;;;7.15;4.70;;;4.30;99.90;;;;;;4908485;29;20108;-68
2021/10/25 09:14:34;;;;;;;7.75;4.75;;;4.40;99.90;;;;;;4903425;29;20051;-68
2021/10/25 09:17:09;;;;;;;8.07;5.22;;;4.40;99.90;;;;;;4906667;29;20067;-68
2021/10/25 09:19:36;;;;;;;6.57;4.55;;;4.60;99.90;;;;;;4911588;29;20036;-68
2021/10/25 09:22:13;;;;;;;7.15;4.82;;;4.60;99.90;;;;;;4910318;29;20503;-68
2021/10/25 09:24:39;;;;;;;12.57;4.75;;;4.70;99.90;;;;;;4910069;29;20490;-68
2021/10/25 09:27:08;;;;;;;5.60;4.65;;;4.80;99.70;;;;;;4907283;29;20020;-68
2021/10/25 09:29:38;;;;;;;5.30;3.92;;;4.80;99.90;;;;;;4907631;29;20087;-68
2021/10/25 09:32:14;;;;;;;6.65;4.00;;;4.90;99.10;;;;;;4900346;29;20502;-68
2021/10/25 09:34:50;;;;;;;5.07;4.57;;;5.00;99.00;;;;;;4902484;29;20103;-70
2021/10/25 09:37:21;;;;;;;4.72;3.97;;;5.10;99.20;;;;;;4904353;29;20028;-68
2021/10/25 09:50:41;;;;;;;5.03;3.60;;;5.50;99.10;;;;;;4909426;29;20079;-69
2021/10/25 09:53:08;;;;;;;5.63;4.07;;;5.60;98.70;;;;;;4906464;29;20040;-68
2021/10/25 09:55:44;;;;;;;7.38;3.78;;;5.70;98.00;;;;;;4908840;29;20059;-68
2021/10/25 09:58:23;;;;;;;4.32;3.22;;;5.70;96.40;;;;;;4909477;29;20028;-68
2021/10/25 10:00:48;;;;;;;3.80;3.05;;;5.80;96.40;;;;;;4921342;29;20044;-68
2021/10/25 10:03:15;;;;;;;6.05;3.83;;;5.90;95.40;;;;;;4907379;29;20028;-68
2021/10/25 10:05:42;;;;;;;6.10;3.92;;;6.00;95.00;;;;;;4901032;29;20476;-68
2021/10/25 10:08:09;;;;;;;4.50;3.67;;;6.00;95.40;;;;;;4906643;29;20032;-68
2021/10/25 10:10:36;;;;;;;5.75;4.30;;;6.10;95.70;;;;;;4910189;29;20586;-68
2021/10/25 10:13:05;;;;;;;5.30;4.15;;;6.20;96.10;;;;;;4909113;29;20029;-68
2021/10/25 10:15:34;;;;;;;7.10;4.20;;;6.30;96.40;;;;;;4908113;29;20095;-68
2021/10/25 10:18:13;;;;;;;5.97;4.45;;;6.40;95.60;;;;;;4905657;29;20047;-69
2021/10/25 10:20:42;;;;;;;4.95;4.45;;;6.40;95.80;;;;;;4900525;29;20056;-69
2021/10/25 10:23:13;;;;;;;6.53;4.53;;;6.50;95.80;;;;;;4907222;29;20040;-68
2021/10/25 10:26:00;;;;;;;6.18;4.25;;;6.60;95.80;;;;;;4911655;29;20036;-68
2021/10/25 10:28:44;;;;;;;7.18;4.80;;;6.80;96.50;;;;;;4911307;29;20032;-68
2021/10/25 10:31:18;;;;;;;8.38;5.32;;;6.80;96.70;;;;;;4908203;29;20036;-69
2021/10/25 10:33:51;;;;;;;8.73;5.40;;;6.90;96.10;;;;;;4912243;29;20036;-69
2021/10/25 10:36:23;;;;;;;8.98;5.38;;;7.00;95.50;;;;;;4911260;29;20043;-68
2021/10/25 10:38:54;;;;;;;5.78;4.47;;;7.00;95.80;;;;;;4904671;29;20032;-69
2021/10/25 10:41:35;;;;;;;7.65;5.43;;;7.20;96.10;;;;;;4911283;29;20111;-69
2021/10/25 10:44:04;;;;;;;5.82;4.63;;;7.30;95.20;;;;;;4906434;29;20020;-68
2021/10/25 10:46:52;;;;;;;6.32;4.97;;;7.40;95.20;;;;;;4912567;29;20612;-68
2021/10/25 10:49:23;;;;;;;10.00;5.75;;;7.40;94.80;;;;;;4928267;29;20032;-69
2021/10/25 10:52:20;;;;;;;7.57;5.18;;;7.50;94.80;;;;;;4914582;29;20028;-69
2021/10/25 10:54:58;;;;;;;6.78;5.15;;;7.60;95.10;;;;;;4910052;29;20431;-69
2021/10/25 11:00:09;;;;;;;7.97;5.03;;;7.80;95.00;;;;;;4907774;29;20048;-69
2021/10/25 11:02:35;;;;;;;8.65;5.45;;;7.90;95.50;;;;;;4909590;29;20032;-68
2021/10/25 11:05:08;;;;;;;6.30;5.07;;;7.90;94.70;;;;;;4910451;29;20028;-69
2021/10/25 11:07:40;;;;;;;11.23;6.03;;;8.00;94.50;;;;;;4906783;29;20159;-68
2021/10/25 11:10:07;;;;;;;10.13;6.18;;;8.10;94.20;;;;;;4905751;29;20683;-69
2021/10/25 11:12:39;;;;;;;8.88;5.93;;;8.20;93.80;;;;;;4909722;29;20748;-69
2021/10/25 11:15:08;;;;;;;11.38;6.88;;;8.30;93.90;;;;;;4904315;29;20055;-69
2021/10/25 11:17:35;;;;;;;10.57;6.47;;;8.40;94.30;;;;;;4909312;29;20766;-69
2021/10/25 11:20:02;;;;;;;10.75;6.88;;;8.40;93.80;;;;;;4913841;29;20446;-69
2021/10/25 11:22:32;;;;;;;12.30;6.70;;;8.50;94.30;;;;;;4904596;29;20032;-69
2021/10/25 11:24:58;;;;;;;9.00;5.85;;;8.60;94.10;;;;;;4912425;29;20024;-69
2021/10/25 11:27:48;;;;;;;10.75;6.88;;;8.60;93.50;;;;;;4902809;29;20410;-69
2021/10/25 11:30:13;;;;;;;;;;;8.70;93.40;;;;;;4906898;29;20028;-69
2021/10/25 11:32:41;;;;;;;13.00;7.03;;;8.90;94.20;;;;;;4909323;29;20100;-69
2021/10/25 11:35:13;;;;;;;8.70;6.07;;;9.00;94.10;;;;;;4904618;29;20457;-69
2021/10/25 11:37:47;;;;;;;10.02;6.15;;;9.00;92.60;;;;;;4912921;29;20438;-69
2021/10/25 11:40:17;;;;;;;11.23;6.32;;;9.00;92.70;;;;;;4910566;29;20138;-69
2021/10/25 11:42:45;;;;;;;9.55;5.95;;;9.00;92.50;;;;;;4912393;29;20068;-69
2021/10/25 11:45:14;;;;;;;10.05;6.35;;;9.00;91.80;;;;;;4910364;29;20446;-69
2021/10/25 11:47:43;;;;;;;10.00;6.85;;;9.10;91.60;;;;;;4909741;29;20032;-69
2021/10/25 11:50:16;;;;;;;;;;;9.10;91.70;;;;;;4903650;29;20064;-69
2021/10/25 11:52:46;;;;;;;8.57;6.32;;;9.20;91.30;;;;;;4907110;29;20620;-70
2021/10/25 11:55:16;;;;;;;11.65;6.63;;;9.20;91.40;;;;;;4910740;29;20028;-69
2021/10/25 11:57:50;;;;;;;11.35;6.45;;;9.20;90.80;;;;;;4910741;29;20034;-69
2021/10/25 12:00:19;;;;;;;10.07;6.40;;;9.10;90.90;;;;;;4911779;29;20034;-69
2021/10/25 12:02:45;;;;;;;12.02;7.03;;;9.10;91.60;;;;;;4902141;29;20508;-69
2021/10/25 12:05:10;;;;;;;13.90;6.78;;;9.30;91.90;;;;;;4912616;29;20021;-69
2021/10/25 12:07:56;;;;;;;11.25;7.00;;;9.40;91.10;;;;;;4909972;29;20032;-69
2021/10/25 12:10:24;;;;;;;10.88;6.75;;;9.50;90.70;;;;;;4910189;29;20024;-69
2021/10/25 12:12:56;;;;;;;13.05;6.90;;;9.50;90.70;;;;;;4908251;29;20393;-69
2021/10/25 12:15:24;;;;;;;12.63;7.13;;;9.60;90.20;;;;;;4906613;29;20062;-70
2021/10/25 12:17:50;;;;;;;11.13;6.75;;;9.60;90.10;;;;;;4911591;29;20036;-69
2021/10/25 12:20:26;;;;;;;10.73;6.30;;;9.60;89.30;;;;;;4909591;29;20048;-69
2021/10/25 12:23:18;;;;;;;11.02;6.47;;;9.70;89.20;;;;;;4902682;29;20025;-69
2021/10/25 12:25:52;;;;;;;11.73;7.20;;;9.70;89.10;;;;;;4901191;29;20131;-69
2021/10/25 12:28:20;;;;;;;10.20;6.88;;;9.70;89.20;;;;;;4906259;29;20032;-69
2021/10/25 12:30:46;;;;;;;;;;;9.70;89.40;;;;;;4903299;28;20085;-69
2021/10/25 12:33:12;;;;;;;10.68;6.70;;;9.70;88.60;;;;;;4911531;29;20369;-69
2021/10/25 12:35:41;;;;;;;11.95;7.05;;;9.70;89.00;;;;;;4910227;29;20035;-69
2021/10/25 12:38:12;;;;;;;10.40;6.60;;;9.70;89.20;;;;;;4909314;29;20091;-69
2021/10/25 12:41:01;;;;;;;10.57;7.03;;;9.80;89.50;;;;;;4905239;29;20024;-69
2021/10/25 12:43:41;;;;;;;11.70;6.50;;;9.80;89.80;;;;;;4907165;29;20527;-69
2021/10/25 12:46:10;;;;;;;9.63;6.63;;;9.90;87.10;;;;;;4907044;29;20028;-69
2021/10/25 12:48:48;;;;;;;12.13;7.18;;;9.90;86.00;;;;;;4912834;29;20024;-70
2021/10/25 12:51:14;;;;;;;15.70;7.60;;;10.00;87.30;;;;;;4906236;29;20040;-69
2021/10/25 12:53:45;;;;;;;10.30;6.85;;;10.00;86.30;;;;;;4912177;29;20039;-69
2021/10/25 12:56:11;;;;;;;11.38;7.00;;;9.90;87.00;;;;;;4902396;29;20039;-69
2021/10/25 12:58:37;;;;;;;10.48;6.32;;;10.10;87.50;;;;;;4907192;29;20039;-69
2021/10/25 13:01:10;;;;;;;11.82;6.78;;;10.10;86.30;;;;;;4909726;29;20534;-69
2021/10/25 13:03:35;;;;;;;9.48;6.47;;;10.10;85.80;;;;;;4903153;29;20482;-69
2021/10/25 13:06:08;;;;;;;8.35;6.05;;;10.20;87.10;;;;;;4909908;29;20087;-69
2021/10/25 13:08:35;;;;;;;10.18;6.10;;;10.20;87.40;;;;;;4901082;29;20047;-69
2021/10/25 13:11:02;;;;;;;10.02;6.47;;;10.30;86.40;;;;;;4911773;29;20032;-69
2021/10/25 13:13:33;;;;;;;11.57;7.22;;;10.30;87.60;;;;;;4906777;29;20036;-69
2021/10/25 13:16:00;;;;;;;11.32;7.43;;;10.30;87.20;;;;;;4904602;29;20032;-69
2021/10/25 13:18:26;;;;;;;10.50;6.95;;;10.20;86.80;;;;;;4910717;29;20437;-69
2021/10/25 13:20:52;;;;;;;12.70;6.85;;;10.20;87.80;;;;;;4909692;29;20099;-69
2021/10/25 13:23:17;;;;;;;11.20;7.13;;;10.20;88.60;;;;;;4904064;29;20164;-69
2021/10/25 13:25:43;;;;;;;11.27;6.88;;;10.20;86.60;;;;;;4901885;29;20043;-69
2021/10/25 13:28:09;;;;;;;9.85;6.93;;;10.20;86.00;;;;;;4905469;29;20052;-69
2021/10/25 13:30:36;;;;;;;11.93;6.85;;;10.30;86.70;;;;;;4898994;29;20036;-69
2021/10/25 13:33:02;;;;;;;11.52;7.20;;;10.20;85.60;;;;;;4909022;29;20058;-69
2021/10/25 13:35:28;;;;;;;11.05;6.22;;;10.30;86.30;;;;;;4904187;29;20036;-69
2021/10/25 13:37:55;;;;;;;12.18;6.88;;;10.30;88.00;;;;;;4907102;29;20039;-69
2021/10/25 13:40:27;;;;;;;10.25;6.78;;;10.40;87.70;;;;;;4907131;29;20024;-69
2021/10/25 13:42:54;;;;;;;9.48;6.50;;;10.50;88.60;;;;;;4923398;29;20110;-69
2021/10/25 13:45:20;;;;;;;9.38;5.93;;;10.50;88.30;;;;;;4910854;29;20084;-69
2021/10/25 13:47:47;;;;;;;10.77;6.55;;;10.50;86.10;;;;;;4904685;29;20051;-69
2021/10/25 13:50:14;;;;;;;9.90;6.53;;;10.50;86.50;;;;;;4910286;29;20478;-69
2021/10/25 13:52:39;;;;;;;11.30;6.97;;;10.50;86.40;;;;;;4902649;29;20040;-69
2021/10/25 13:55:06;;;;;;;13.07;7.40;;;10.50;87.10;;;;;;4902503;29;20041;-69
2021/10/25 13:57:41;;;;;;;11.63;7.07;;;10.50;88.80;;;;;;4905088;29;20039;-69
2021/10/25 14:00:09;;;;;;;10.73;6.88;;;10.60;88.40;;;;;;4920249;29;20468;-69
2021/10/25 14:02:36;;;;;;;12.88;7.18;;;10.60;86.60;;;;;;4909659;29;20068;-69
2021/10/25 14:05:04;;;;;;;10.30;6.40;;;10.60;86.30;;;;;;4910548;29;20122;-69
2021/10/25 14:07:32;;;;;;;8.07;5.95;;;10.60;86.60;;;;;;4909897;29;20032;-69
2021/10/25 14:10:07;;;;;;;10.90;6.93;;;10.70;85.90;;;;;;4906592;29;23743;-69
2021/10/25 14:12:35;;;;;;;10.43;6.03;;;10.80;85.60;;;;;;4906334;29;20087;-69
2021/10/25 14:16:00;;;;;;;10.25;6.53;;;11.10;87.10;;;;;;4912215;29;20082;-69
2021/10/25 14:17:52;;;;;;;9.45;6.00;;;11.60;85.30;;;;;;4902201;29;20048;-67
2021/10/25 14:20:20;;;;;;;9.93;6.40;;;12.00;82.20;;;;;;4909519;29;20032;-67
2021/10/25 14:22:47;;;;;;;7.30;5.22;;;12.10;78.70;;;;;;4910269;29;20091;-67
2021/10/25 14:25:13;;;;;;;8.38;6.03;;;12.00;77.80;;;;;;4924171;29;20028;-67
2021/10/25 14:27:39;;;;;;;8.52;6.40;;;12.00;78.40;;;;;;4924676;29;20043;-67
2021/10/25 14:30:06;;;;;;;8.48;5.10;;;12.00;78.60;;;;;;4911636;29;20039;-67
2021/10/25 14:32:32;;;;;;;8.38;5.22;;;11.90;78.90;;;;;;4905335;29;20526;-67
2021/10/25 14:34:58;;;;;;;7.50;5.30;;;11.90;80.10;;;;;;4906597;29;20139;-67
2021/10/25 14:37:30;;;;;;;9.60;5.90;;;12.00;79.80;;;;;;4926638;29;20542;-68
2021/10/25 14:39:56;;;;;;;8.27;6.68;;;12.00;80.40;;;;;;4910932;29;20063;-68